sensor_id;sensor_type;location;lat;lon;timestamp;pressure;altitude;pressure_sealevel;temperature;humidity
24234;BME280;12365;43.554;1.388;2023-01-26T00:01:37;100782.47;;;4.45;64.24
24234;BME280;12365;43.554;1.388;2023-01-26T00:04:02;100772.94;;;4.44;64.47
24234;BME280;12365;43.554;1.388;2023-01-26T00:06:27;100768.50;;;4.43;64.52
24234;BME280;12365;43.554;1.388;2023-01-26T00:08:55;100771.09;;;4.43;64.39
24234;BME280;12365;43.554;1.388;2023-01-26T00:11:23;100772.03;;;4.43;64.34
24234;BME280;12365;43.554;1.388;2023-01-26T00:13:51;100770.34;;;4.44;64.43
24234;BME280;12365;43.554;1.388;2023-01-26T00:16:16;100756.53;;;4.43;64.28
24234;BME280;12365;43.554;1.388;2023-01-26T00:18:42;100755.88;;;4.46;64.44
24234;BME280;12365;43.554;1.388;2023-01-26T00:21:12;100749.03;;;4.46;64.12
24234;BME280;12365;43.554;1.388;2023-01-26T00:23:37;100732.88;;;4.39;64.59
24234;BME280;12365;43.554;1.388;2023-01-26T00:26:08;100734.16;;;4.44;64.54
24234;BME280;12365;43.554;1.388;2023-01-26T00:28:34;100716.09;;;4.44;64.26
24234;BME280;12365;43.554;1.388;2023-01-26T00:31:07;100710.66;;;4.41;64.20
24234;BME280;12365;43.554;1.388;2023-01-26T00:33:33;100705.34;;;4.39;64.65
24234;BME280;12365;43.554;1.388;2023-01-26T00:35:59;100701.88;;;4.39;64.17
24234;BME280;12365;43.554;1.388;2023-01-26T00:38:24;100698.09;;;4.35;64.60
24234;BME280;12365;43.554;1.388;2023-01-26T00:40:50;100696.16;;;4.32;64.25
24234;BME280;12365;43.554;1.388;2023-01-26T00:43:15;100686.34;;;4.28;64.86
24234;BME280;12365;43.554;1.388;2023-01-26T00:45:41;100690.72;;;4.29;64.95
24234;BME280;12365;43.554;1.388;2023-01-26T00:48:06;100686.19;;;4.27;64.38
24234;BME280;12365;43.554;1.388;2023-01-26T00:50:32;100696.38;;;4.25;64.79
24234;BME280;12365;43.554;1.388;2023-01-26T00:52:58;100689.28;;;4.23;64.51
24234;BME280;12365;43.554;1.388;2023-01-26T00:55:23;100676.25;;;4.21;65.05
24234;BME280;12365;43.554;1.388;2023-01-26T00:57:56;100686.56;;;4.21;64.62
24234;BME280;12365;43.554;1.388;2023-01-26T01:00:21;100675.19;;;4.19;64.62
24234;BME280;12365;43.554;1.388;2023-01-26T01:02:47;100679.31;;;4.17;64.71
24234;BME280;12365;43.554;1.388;2023-01-26T01:05:12;100686.56;;;4.21;64.95
24234;BME280;12365;43.554;1.388;2023-01-26T01:07:37;100679.72;;;4.22;64.81
24234;BME280;12365;43.554;1.388;2023-01-26T01:10:03;100673.13;;;4.25;64.57
24234;BME280;12365;43.554;1.388;2023-01-26T01:12:29;100675.88;;;4.27;64.59
24234;BME280;12365;43.554;1.388;2023-01-26T01:14:54;100669.91;;;4.28;64.89
24234;BME280;12365;43.554;1.388;2023-01-26T01:17:19;100676.75;;;4.27;64.83
24234;BME280;12365;43.554;1.388;2023-01-26T01:19:45;100676.75;;;4.27;64.76
24234;BME280;12365;43.554;1.388;2023-01-26T01:22:10;100677.66;;;4.28;64.81
24234;BME280;12365;43.554;1.388;2023-01-26T01:24:35;100665.03;;;4.31;64.98
24234;BME280;12365;43.554;1.388;2023-01-26T01:27:02;100673.69;;;4.31;64.65
24234;BME280;12365;43.554;1.388;2023-01-26T01:29:27;100673.03;;;4.34;64.86
24234;BME280;12365;43.554;1.388;2023-01-26T01:31:53;100668.13;;;4.37;64.83
24234;BME280;12365;43.554;1.388;2023-01-26T01:34:18;100666.34;;;4.36;64.70
24234;BME280;12365;43.554;1.388;2023-01-26T01:36:43;100670.72;;;4.37;64.71
24234;BME280;12365;43.554;1.388;2023-01-26T01:39:09;100667.38;;;4.38;64.90
24234;BME280;12365;43.554;1.388;2023-01-26T01:41:34;100663.88;;;4.38;64.65
24234;BME280;12365;43.554;1.388;2023-01-26T01:46:56;100667.50;;;4.40;64.81
24234;BME280;12365;43.554;1.388;2023-01-26T01:49:50;100663.38;;;4.42;64.42
24234;BME280;12365;43.554;1.388;2023-01-26T01:52:19;100671.13;;;4.42;64.54
24234;BME280;12365;43.554;1.388;2023-01-26T01:57:21;100676.56;;;4.45;64.59
24234;BME280;12365;43.554;1.388;2023-01-26T01:59:57;100673.47;;;4.49;64.83
24234;BME280;12365;43.554;1.388;2023-01-26T02:02:24;100672.44;;;4.47;64.82
24234;BME280;12365;43.554;1.388;2023-01-26T02:04:49;100669.06;;;4.48;64.93
24234;BME280;12365;43.554;1.388;2023-01-26T02:07:15;100672.69;;;4.50;64.79
24234;BME280;12365;43.554;1.388;2023-01-26T02:09:42;100671.94;;;4.51;64.82
24234;BME280;12365;43.554;1.388;2023-01-26T02:12:29;100673.59;;;4.50;65.19
24234;BME280;12365;43.554;1.388;2023-01-26T02:14:56;100675.53;;;4.53;64.82
24234;BME280;12365;43.554;1.388;2023-01-26T02:17:22;100676.56;;;4.55;65.06
24234;BME280;12365;43.554;1.388;2023-01-26T02:22:41;100671.53;;;4.56;65.22
24234;BME280;12365;43.554;1.388;2023-01-26T02:25:23;100663.53;;;4.53;65.13
24234;BME280;12365;43.554;1.388;2023-01-26T02:27:52;100667.28;;;4.57;64.91
24234;BME280;12365;43.554;1.388;2023-01-26T02:30:17;100668.19;;;4.57;64.98
24234;BME280;12365;43.554;1.388;2023-01-26T02:32:43;100656.31;;;4.60;64.99
24234;BME280;12365;43.554;1.388;2023-01-26T02:35:08;100655.41;;;4.59;65.08
24234;BME280;12365;43.554;1.388;2023-01-26T02:37:33;100658.09;;;4.61;65.25
24234;BME280;12365;43.554;1.388;2023-01-26T02:40:04;100660.69;;;4.61;64.98
24234;BME280;12365;43.554;1.388;2023-01-26T02:42:31;100656.56;;;4.63;64.63
24234;BME280;12365;43.554;1.388;2023-01-26T02:45:03;100657.34;;;4.62;64.98
24234;BME280;12365;43.554;1.388;2023-01-26T02:47:29;100663.56;;;4.64;65.22
24234;BME280;12365;43.554;1.388;2023-01-26T02:49:55;100660.31;;;4.66;64.55
24234;BME280;12365;43.554;1.388;2023-01-26T02:52:24;100657.75;;;4.66;64.90
24234;BME280;12365;43.554;1.388;2023-01-26T02:54:53;100661.09;;;4.65;64.96
24234;BME280;12365;43.554;1.388;2023-01-26T02:57:37;100659.28;;;4.64;65.33
24234;BME280;12365;43.554;1.388;2023-01-26T03:00:06;100657.75;;;4.66;64.69
24234;BME280;12365;43.554;1.388;2023-01-26T03:02:32;100654.38;;;4.67;64.98
24234;BME280;12365;43.554;1.388;2023-01-26T03:04:57;100651.63;;;4.66;64.71
24234;BME280;12365;43.554;1.388;2023-01-26T03:07:22;100643.88;;;4.66;65.07
24234;BME280;12365;43.554;1.388;2023-01-26T03:09:48;100640.41;;;4.65;65.08
24234;BME280;12365;43.554;1.388;2023-01-26T03:12:13;100632.66;;;4.65;65.16
24234;BME280;12365;43.554;1.388;2023-01-26T03:14:39;100628.28;;;4.64;64.92
24234;BME280;12365;43.554;1.388;2023-01-26T03:17:04;100623.09;;;4.64;65.12
24234;BME280;12365;43.554;1.388;2023-01-26T03:19:30;100622.22;;;4.64;65.34
24234;BME280;12365;43.554;1.388;2023-01-26T03:22:14;100618.69;;;4.63;64.75
24234;BME280;12365;43.554;1.388;2023-01-26T03:24:58;100616.00;;;4.62;65.07
24234;BME280;12365;43.554;1.388;2023-01-26T03:27:44;100612.53;;;4.61;65.23
24234;BME280;12365;43.554;1.388;2023-01-26T03:30:11;100613.28;;;4.60;64.95
24234;BME280;12365;43.554;1.388;2023-01-26T03:32:37;100596.09;;;4.61;65.12
24234;BME280;12365;43.554;1.388;2023-01-26T03:35:03;100608.00;;;4.59;64.97
24234;BME280;12365;43.554;1.388;2023-01-26T03:37:28;100600.34;;;4.60;64.90
24234;BME280;12365;43.554;1.388;2023-01-26T03:40:02;100602.19;;;4.61;65.03
24234;BME280;12365;43.554;1.388;2023-01-26T03:42:46;100605.78;;;4.63;65.21
24234;BME280;12365;43.554;1.388;2023-01-26T03:45:30;100600.59;;;4.63;65.32
24234;BME280;12365;43.554;1.388;2023-01-26T03:48:14;100597.25;;;4.64;64.91
24234;BME280;12365;43.554;1.388;2023-01-26T03:50:58;100602.44;;;4.64;64.79
24234;BME280;12365;43.554;1.388;2023-01-26T03:53:42;100599.72;;;4.63;65.05
24234;BME280;12365;43.554;1.388;2023-01-26T03:56:26;100601.63;;;4.65;64.91
24234;BME280;12365;43.554;1.388;2023-01-26T03:59:02;100598.31;;;4.66;65.30
24234;BME280;12365;43.554;1.388;2023-01-26T04:01:44;100593.25;;;4.68;65.00
24234;BME280;12365;43.554;1.388;2023-01-26T04:04:29;100598.41;;;4.68;65.16
24234;BME280;12365;43.554;1.388;2023-01-26T04:07:13;100582.91;;;4.68;65.06
24234;BME280;12365;43.554;1.388;2023-01-26T04:09:57;100585.63;;;4.69;64.71
24234;BME280;12365;43.554;1.388;2023-01-26T04:12:22;100583.06;;;4.69;64.98
24234;BME280;12365;43.554;1.388;2023-01-26T04:14:48;100580.47;;;4.69;64.87
24234;BME280;12365;43.554;1.388;2023-01-26T04:17:32;100570.13;;;4.69;65.05
24234;BME280;12365;43.554;1.388;2023-01-26T04:20:16;100561.59;;;4.70;65.36
24234;BME280;12365;43.554;1.388;2023-01-26T04:22:59;100564.97;;;4.69;64.76
24234;BME280;12365;43.554;1.388;2023-01-26T04:25:25;100558.25;;;4.71;65.51
24234;BME280;12365;43.554;1.388;2023-01-26T04:27:50;100561.59;;;4.70;65.38
24234;BME280;12365;43.554;1.388;2023-01-26T04:30:16;100558.50;;;4.74;65.19
24234;BME280;12365;43.554;1.388;2023-01-26T04:32:43;100554.38;;;4.76;64.76
24234;BME280;12365;43.554;1.388;2023-01-26T04:35:10;100553.56;;;4.77;65.05
24234;BME280;12365;43.554;1.388;2023-01-26T04:37:35;100554.47;;;4.78;65.45
24234;BME280;12365;43.554;1.388;2023-01-26T04:40:01;100550.22;;;4.78;64.85
24234;BME280;12365;43.554;1.388;2023-01-26T04:42:26;100545.97;;;4.79;65.39
24234;BME280;12365;43.554;1.388;2023-01-26T04:44:52;100539.88;;;4.78;65.56
24234;BME280;12365;43.554;1.388;2023-01-26T04:47:19;100541.69;;;4.80;65.02
24234;BME280;12365;43.554;1.388;2023-01-26T04:49:44;100532.91;;;4.77;65.30
24234;BME280;12365;43.554;1.388;2023-01-26T04:52:10;100528.63;;;4.78;65.22
24234;BME280;12365;43.554;1.388;2023-01-26T04:54:35;100527.88;;;4.79;65.33
24234;BME280;12365;43.554;1.388;2023-01-26T04:57:01;100531.34;;;4.80;64.81
24234;BME280;12365;43.554;1.388;2023-01-26T04:59:26;100521.00;;;4.80;65.29
24234;BME280;12365;43.554;1.388;2023-01-26T05:01:52;100519.22;;;4.78;65.24
24234;BME280;12365;43.554;1.388;2023-01-26T05:04:18;100516.72;;;4.80;65.41
24234;BME280;12365;43.554;1.388;2023-01-26T05:06:43;100518.56;;;4.81;65.22
24234;BME280;12365;43.554;1.388;2023-01-26T05:09:09;100520.22;;;4.81;65.16
24234;BME280;12365;43.554;1.388;2023-01-26T05:11:34;100509.88;;;4.81;65.16
24234;BME280;12365;43.554;1.388;2023-01-26T05:14:00;100511.47;;;4.78;65.23
24234;BME280;12365;43.554;1.388;2023-01-26T05:16:26;100504.59;;;4.79;65.40
24234;BME280;12365;43.554;1.388;2023-01-26T05:18:52;100498.53;;;4.78;65.14
24234;BME280;12365;43.554;1.388;2023-01-26T05:21:18;100501.13;;;4.78;65.38
24234;BME280;12365;43.554;1.388;2023-01-26T05:23:43;100496.72;;;4.77;65.62
24234;BME280;12365;43.554;1.388;2023-01-26T05:26:09;100496.72;;;4.77;65.29
24234;BME280;12365;43.554;1.388;2023-01-26T05:28:34;100500.34;;;4.80;65.31
24234;BME280;12365;43.554;1.388;2023-01-26T05:31:00;100487.28;;;4.78;65.32
24234;BME280;12365;43.554;1.388;2023-01-26T05:33:25;100485.47;;;4.77;65.63
24234;BME280;12365;43.554;1.388;2023-01-26T05:35:51;100485.34;;;4.75;65.18
24234;BME280;12365;43.554;1.388;2023-01-26T05:38:17;100486.13;;;4.74;65.54
24234;BME280;12365;43.554;1.388;2023-01-26T05:40:43;100482.50;;;4.72;65.33
24234;BME280;12365;43.554;1.388;2023-01-26T05:43:09;100484.31;;;4.73;65.44
24234;BME280;12365;43.554;1.388;2023-01-26T05:45:35;100478.88;;;4.70;65.43
24234;BME280;12365;43.554;1.388;2023-01-26T05:48:01;100477.34;;;4.72;65.02
24234;BME280;12365;43.554;1.388;2023-01-26T05:50:26;100476.53;;;4.73;65.36
24234;BME280;12365;43.554;1.388;2023-01-26T05:52:52;100476.53;;;4.73;65.68
24234;BME280;12365;43.554;1.388;2023-01-26T05:55:17;100469.72;;;4.74;65.01
24234;BME280;12365;43.554;1.388;2023-01-26T05:57:43;100468.78;;;4.73;65.65
24234;BME280;12365;43.554;1.388;2023-01-26T06:00:10;100469.06;;;4.76;65.39
24234;BME280;12365;43.554;1.388;2023-01-26T06:02:36;100460.38;;;4.76;65.40
24234;BME280;12365;43.554;1.388;2023-01-26T06:05:02;100461.31;;;4.76;64.97
24234;BME280;12365;43.554;1.388;2023-01-26T06:07:28;100456.91;;;4.75;65.31
24234;BME280;12365;43.554;1.388;2023-01-26T06:09:53;100457.81;;;4.76;65.13
24234;BME280;12365;43.554;1.388;2023-01-26T06:12:20;100455.22;;;4.76;65.04
24234;BME280;12365;43.554;1.388;2023-01-26T06:14:46;100457.81;;;4.76;65.49
24234;BME280;12365;43.554;1.388;2023-01-26T06:17:13;100457.81;;;4.76;65.24
24234;BME280;12365;43.554;1.388;2023-01-26T06:19:39;100454.31;;;4.75;65.68
24234;BME280;12365;43.554;1.388;2023-01-26T06:22:08;100456.91;;;4.75;65.87
24234;BME280;12365;43.554;1.388;2023-01-26T06:24:34;100451.75;;;4.75;65.42
24234;BME280;12365;43.554;1.388;2023-01-26T06:27:00;100463.09;;;4.77;65.71
24234;BME280;12365;43.554;1.388;2023-01-26T06:29:26;100457.19;;;4.78;65.33
24234;BME280;12365;43.554;1.388;2023-01-26T06:31:51;100449.44;;;4.78;65.55
24234;BME280;12365;43.554;1.388;2023-01-26T06:34:17;100453.81;;;4.80;65.61
24234;BME280;12365;43.554;1.388;2023-01-26T06:36:43;100446.84;;;4.78;65.48
24234;BME280;12365;43.554;1.388;2023-01-26T06:39:10;100445.00;;;4.77;65.40
24234;BME280;12365;43.554;1.388;2023-01-26T06:41:36;100449.28;;;4.77;65.53
24234;BME280;12365;43.554;1.388;2023-01-26T06:44:01;100444.13;;;4.77;65.26
24234;BME280;12365;43.554;1.388;2023-01-26T06:46:27;100447.47;;;4.76;65.72
24234;BME280;12365;43.554;1.388;2023-01-26T06:48:52;100444.78;;;4.74;65.43
24234;BME280;12365;43.554;1.388;2023-01-26T06:53:56;100450.84;;;4.75;65.23
24234;BME280;12365;43.554;1.388;2023-01-26T06:56:23;100436.13;;;4.74;65.79
24234;BME280;12365;43.554;1.388;2023-01-26T06:58:49;100435.19;;;4.73;65.76
24234;BME280;12365;43.554;1.388;2023-01-26T07:01:20;100441.16;;;4.72;65.51
24234;BME280;12365;43.554;1.388;2023-01-26T07:03:47;100441.16;;;4.72;65.57
24234;BME280;12365;43.554;1.388;2023-01-26T07:06:12;100434.19;;;4.71;65.78
24234;BME280;12365;43.554;1.388;2023-01-26T07:08:38;100434.19;;;4.71;65.42
24234;BME280;12365;43.554;1.388;2023-01-26T07:11:04;100436.00;;;4.72;65.65
24234;BME280;12365;43.554;1.388;2023-01-26T07:13:29;100436.00;;;4.72;65.78
24234;BME280;12365;43.554;1.388;2023-01-26T07:16:06;100435.19;;;4.73;65.47
24234;BME280;12365;43.554;1.388;2023-01-26T07:18:32;100433.53;;;4.74;65.74
24234;BME280;12365;43.554;1.388;2023-01-26T07:21:02;100430.69;;;4.71;66.07
24234;BME280;12365;43.554;1.388;2023-01-26T07:23:28;100436.22;;;4.75;65.80
24234;BME280;12365;43.554;1.388;2023-01-26T07:25:53;100433.66;;;4.75;65.69
24234;BME280;12365;43.554;1.388;2023-01-26T07:28:18;100436.50;;;4.78;65.79
24234;BME280;12365;43.554;1.388;2023-01-26T07:30:44;100431.34;;;4.78;65.89
24234;BME280;12365;43.554;1.388;2023-01-26T07:33:09;100436.75;;;4.82;66.19
24234;BME280;12365;43.554;1.388;2023-01-26T07:35:35;100435.94;;;4.83;65.68
24234;BME280;12365;43.554;1.388;2023-01-26T07:38:03;100440.38;;;4.84;65.84
24234;BME280;12365;43.554;1.388;2023-01-26T07:40:28;100441.50;;;4.87;65.91
24234;BME280;12365;43.554;1.388;2023-01-26T07:42:54;100440.59;;;4.87;65.74
24234;BME280;12365;43.554;1.388;2023-01-26T07:45:20;100439.94;;;4.89;66.06
24234;BME280;12365;43.554;1.388;2023-01-26T07:47:45;100439.94;;;4.89;65.84
24234;BME280;12365;43.554;1.388;2023-01-26T07:50:11;100435.44;;;4.87;66.01
24234;BME280;12365;43.554;1.388;2023-01-26T07:52:38;100447.97;;;4.82;66.09
24234;BME280;12365;43.554;1.388;2023-01-26T07:55:03;100440.63;;;4.76;65.28
24234;BME280;12365;43.554;1.388;2023-01-26T07:57:29;100446.31;;;4.72;66.11
24234;BME280;12365;43.554;1.388;2023-01-26T07:59:54;100435.50;;;4.66;65.80
24234;BME280;12365;43.554;1.388;2023-01-26T08:02:20;100441.81;;;4.70;66.15
24234;BME280;12365;43.554;1.388;2023-01-26T08:04:45;100444.53;;;4.71;65.52
24234;BME280;12365;43.554;1.388;2023-01-26T08:07:11;100436.88;;;4.73;65.77
24234;BME280;12365;43.554;1.388;2023-01-26T08:09:36;100432.88;;;4.76;66.17
24234;BME280;12365;43.554;1.388;2023-01-26T08:12:02;100436.22;;;4.75;65.48
24234;BME280;12365;43.554;1.388;2023-01-26T08:14:27;100446.06;;;4.80;65.49
24234;BME280;12365;43.554;1.388;2023-01-26T08:16:53;100442.69;;;4.81;65.92
24234;BME280;12365;43.554;1.388;2023-01-26T08:19:18;100441.91;;;4.82;66.15
24234;BME280;12365;43.554;1.388;2023-01-26T08:21:44;100438.53;;;4.83;65.89
24234;BME280;12365;43.554;1.388;2023-01-26T08:24:10;100439.09;;;4.78;65.81
24234;BME280;12365;43.554;1.388;2023-01-26T08:26:36;100440.88;;;4.80;65.91
24234;BME280;12365;43.554;1.388;2023-01-26T08:29:02;100432.34;;;4.81;65.98
24234;BME280;12365;43.554;1.388;2023-01-26T08:31:27;100443.72;;;4.83;65.68
24234;BME280;12365;43.554;1.388;2023-01-26T08:33:54;100441.13;;;4.83;66.02
24234;BME280;12365;43.554;1.388;2023-01-26T08:36:21;100439.44;;;4.83;66.26
24234;BME280;12365;43.554;1.388;2023-01-26T08:38:46;100441.38;;;4.86;65.86
24234;BME280;12365;43.554;1.388;2023-01-26T08:41:12;100444.88;;;4.86;66.09
24234;BME280;12365;43.554;1.388;2023-01-26T08:43:37;100439.72;;;4.86;65.78
24234;BME280;12365;43.554;1.388;2023-01-26T08:46:03;100445.78;;;4.87;66.08
24234;BME280;12365;43.554;1.388;2023-01-26T08:48:29;100446.81;;;4.89;65.67
24234;BME280;12365;43.554;1.388;2023-01-26T08:50:57;100439.06;;;4.89;66.17
24234;BME280;12365;43.554;1.388;2023-01-26T08:53:23;100441.09;;;4.93;66.30
24234;BME280;12365;43.554;1.388;2023-01-26T08:55:49;100448.31;;;4.97;66.19
24234;BME280;12365;43.554;1.388;2023-01-26T08:58:15;100445.75;;;4.97;66.28
24234;BME280;12365;43.554;1.388;2023-01-26T09:00:40;100452.84;;;4.99;65.96
24234;BME280;12365;43.554;1.388;2023-01-26T09:03:05;100445.19;;;5.01;66.19
24234;BME280;12365;43.554;1.388;2023-01-26T09:05:35;100449.59;;;5.02;65.99
24234;BME280;12365;43.554;1.388;2023-01-26T09:08:04;100448.81;;;5.03;65.96
24234;BME280;12365;43.554;1.388;2023-01-26T09:10:29;100449.03;;;5.06;65.82
24234;BME280;12365;43.554;1.388;2023-01-26T09:12:56;100444.00;;;5.08;66.09
24234;BME280;12365;43.554;1.388;2023-01-26T09:15:22;100440.75;;;5.10;65.69
24234;BME280;12365;43.554;1.388;2023-01-26T09:17:48;100436.72;;;5.14;65.84
24234;BME280;12365;43.554;1.388;2023-01-26T09:20:13;100437.91;;;5.17;66.24
24234;BME280;12365;43.554;1.388;2023-01-26T09:22:39;100433.84;;;5.21;65.83
24234;BME280;12365;43.554;1.388;2023-01-26T09:25:05;100433.31;;;5.25;66.46
24234;BME280;12365;43.554;1.388;2023-01-26T09:27:30;100431.63;;;5.26;66.00
24234;BME280;12365;43.554;1.388;2023-01-26T09:29:56;100432.53;;;5.26;65.66
24234;BME280;12365;43.554;1.388;2023-01-26T09:32:22;100434.22;;;5.26;66.02
24234;BME280;12365;43.554;1.388;2023-01-26T09:34:47;100431.88;;;5.29;66.30
24234;BME280;12365;43.554;1.388;2023-01-26T09:37:13;100431.22;;;5.31;65.96
24234;BME280;12365;43.554;1.388;2023-01-26T09:39:38;100434.16;;;5.36;65.55
24234;BME280;12365;43.554;1.388;2023-01-26T09:44:45;100424.56;;;5.45;65.59
24234;BME280;12365;43.554;1.388;2023-01-26T09:47:39;100427.50;;;5.50;66.11
24234;BME280;12365;43.554;1.388;2023-01-26T09:50:13;100426.19;;;5.55;66.21
24234;BME280;12365;43.554;1.388;2023-01-26T09:55:21;100428.56;;;5.63;66.24
24234;BME280;12365;43.554;1.388;2023-01-26T09:57:50;100429.59;;;5.65;65.90
24234;BME280;12365;43.554;1.388;2023-01-26T10:00:23;100430.63;;;5.68;65.46
24234;BME280;12365;43.554;1.388;2023-01-26T10:05:54;100431.09;;;5.74;65.86
24234;BME280;12365;43.554;1.388;2023-01-26T10:08:22;100440.69;;;5.75;65.56
24234;BME280;12365;43.554;1.388;2023-01-26T10:11:01;100445.84;;;5.75;65.90
24234;BME280;12365;43.554;1.388;2023-01-26T10:13:29;100451.78;;;5.74;65.72
24234;BME280;12365;43.554;1.388;2023-01-26T10:16:02;100451.56;;;5.71;65.75
24234;BME280;12365;43.554;1.388;2023-01-26T10:18:33;100451.03;;;5.75;65.87
24234;BME280;12365;43.554;1.388;2023-01-26T10:21:03;100445.19;;;5.77;65.29
24234;BME280;12365;43.554;1.388;2023-01-26T10:23:32;100439.22;;;5.78;65.48
24234;BME280;12365;43.554;1.388;2023-01-26T10:26:08;100442.94;;;5.82;65.27
24234;BME280;12365;43.554;1.388;2023-01-26T10:28:35;100442.53;;;5.88;65.64
24234;BME280;12365;43.554;1.388;2023-01-26T10:31:05;100437.69;;;5.92;65.71
24234;BME280;12365;43.554;1.388;2023-01-26T10:33:36;100433.13;;;6.00;65.42
24234;BME280;12365;43.554;1.388;2023-01-26T10:36:04;100429.53;;;6.10;65.24
24234;BME280;12365;43.554;1.388;2023-01-26T10:41:24;100423.59;;;6.11;64.96
24234;BME280;12365;43.554;1.388;2023-01-26T10:46:34;100423.03;;;6.15;64.89
24234;BME280;12365;43.554;1.388;2023-01-26T10:49:15;100426.41;;;6.14;65.03
24234;BME280;12365;43.554;1.388;2023-01-26T10:51:45;100421.09;;;6.12;64.69
24234;BME280;12365;43.554;1.388;2023-01-26T10:54:25;100425.38;;;6.12;65.10
24234;BME280;12365;43.554;1.388;2023-01-26T10:56:58;100406.81;;;6.05;65.24
24234;BME280;12365;43.554;1.388;2023-01-26T10:59:37;100415.81;;;6.11;64.91
24234;BME280;12365;43.554;1.388;2023-01-26T11:04:36;100405.22;;;6.07;64.71
24234;BME280;12365;43.554;1.388;2023-01-26T11:07:41;100393.72;;;6.04;65.21
24234;BME280;12365;43.554;1.388;2023-01-26T11:12:41;100385.84;;;6.02;65.05
24234;BME280;12365;43.554;1.388;2023-01-26T11:15:23;100387.44;;;6.00;64.52
24234;BME280;12365;43.554;1.388;2023-01-26T11:21:11;100384.09;;;5.91;64.96
24234;BME280;12365;43.554;1.388;2023-01-26T11:29:55;100377.41;;;6.17;64.27
24234;BME280;12365;43.554;1.388;2023-01-26T11:37:41;100362.91;;;6.54;64.49
24234;BME280;12365;43.554;1.388;2023-01-26T11:40:27;100359.06;;;6.61;63.94
24234;BME280;12365;43.554;1.388;2023-01-26T11:56:29;100323.38;;;6.93;63.31
24234;BME280;12365;43.554;1.388;2023-01-26T11:59:16;100322.81;;;6.98;63.28
24234;BME280;12365;43.554;1.388;2023-01-26T12:02:03;100321.81;;;6.95;63.10
24234;BME280;12365;43.554;1.388;2023-01-26T12:04:32;100320.22;;;6.98;63.00
24234;BME280;12365;43.554;1.388;2023-01-26T12:07:05;100318.53;;;6.98;62.80
24234;BME280;12365;43.554;1.388;2023-01-26T12:09:38;100303.84;;;6.99;62.62
24234;BME280;12365;43.554;1.388;2023-01-26T12:15:05;100302.13;;;7.11;62.74
24234;BME280;12365;43.554;1.388;2023-01-26T12:18:07;100305.94;;;7.16;62.65
24234;BME280;12365;43.554;1.388;2023-01-26T12:20:39;100302.78;;;7.20;62.60
24234;BME280;12365;43.554;1.388;2023-01-26T12:26:09;100298.84;;;7.13;62.27
24234;BME280;12365;43.554;1.388;2023-01-26T12:28:44;100292.88;;;7.14;62.36
24234;BME280;12365;43.554;1.388;2023-01-26T12:31:26;100286.41;;;7.21;62.41
24234;BME280;12365;43.554;1.388;2023-01-26T12:33:55;100283.34;;;7.27;62.10
24234;BME280;12365;43.554;1.388;2023-01-26T12:39:21;100278.84;;;7.24;61.99
24234;BME280;12365;43.554;1.388;2023-01-26T12:44:50;100273.78;;;7.14;61.75
24234;BME280;12365;43.554;1.388;2023-01-26T12:49:55;100270.78;;;7.08;61.72
24234;BME280;12365;43.554;1.388;2023-01-26T12:57:43;100272.13;;;7.14;61.63
24234;BME280;12365;43.554;1.388;2023-01-26T13:00:33;100262.75;;;7.16;61.61
24234;BME280;12365;43.554;1.388;2023-01-26T13:03:20;100259.03;;;7.13;61.19
24234;BME280;12365;43.554;1.388;2023-01-26T13:11:50;100257.09;;;7.22;60.96
24234;BME280;12365;43.554;1.388;2023-01-26T13:14:36;100265.06;;;7.25;60.83
24234;BME280;12365;43.554;1.388;2023-01-26T13:24:46;100246.09;;;7.26;60.43
24234;BME280;12365;43.554;1.388;2023-01-26T13:35:11;100227.56;;;7.33;59.95
24234;BME280;12365;43.554;1.388;2023-01-26T13:45:47;100237.59;;;7.15;59.72
24234;BME280;12365;43.554;1.388;2023-01-26T13:48:21;100238.28;;;7.13;59.64
24234;BME280;12365;43.554;1.388;2023-01-26T13:50:50;100237.38;;;7.12;59.86
24234;BME280;12365;43.554;1.388;2023-01-26T13:53:37;100244.28;;;7.12;59.74
24234;BME280;12365;43.554;1.388;2023-01-26T13:56:22;100244.03;;;7.09;59.52
24234;BME280;12365;43.554;1.388;2023-01-26T13:58:48;100246.00;;;7.00;59.36
24234;BME280;12365;43.554;1.388;2023-01-26T14:01:15;100247.59;;;6.98;59.48
24234;BME280;12365;43.554;1.388;2023-01-26T14:03:41;100247.38;;;6.94;59.68
24234;BME280;12365;43.554;1.388;2023-01-26T14:06:19;100241.06;;;6.91;59.84
24234;BME280;12365;43.554;1.388;2023-01-26T14:08:55;100235.59;;;6.86;59.48
24234;BME280;12365;43.554;1.388;2023-01-26T14:11:23;100246.75;;;6.85;59.35
24234;BME280;12365;43.554;1.388;2023-01-26T14:13:51;100244.75;;;6.81;59.61
24234;BME280;12365;43.554;1.388;2023-01-26T14:16:27;100234.13;;;6.78;59.60
24234;BME280;12365;43.554;1.388;2023-01-26T14:19:05;100232.22;;;6.76;59.46
24234;BME280;12365;43.554;1.388;2023-01-26T14:22:10;100235.81;;;6.78;59.16
24234;BME280;12365;43.554;1.388;2023-01-26T14:24:39;100236.84;;;6.80;59.49
24234;BME280;12365;43.554;1.388;2023-01-26T14:27:33;100232.19;;;6.87;59.36
24234;BME280;12365;43.554;1.388;2023-01-26T14:29:59;100233.03;;;7.00;59.22
24234;BME280;12365;43.554;1.388;2023-01-26T14:32:25;100235.63;;;7.00;59.48
24234;BME280;12365;43.554;1.388;2023-01-26T14:34:55;100231.75;;;7.06;59.15
24234;BME280;12365;43.554;1.388;2023-01-26T14:37:21;100232.06;;;7.11;58.99
24234;BME280;12365;43.554;1.388;2023-01-26T14:39:48;100232.19;;;7.12;58.90
24234;BME280;12365;43.554;1.388;2023-01-26T14:42:15;100237.19;;;7.09;58.81
24234;BME280;12365;43.554;1.388;2023-01-26T14:44:41;100238.84;;;7.09;58.45
24234;BME280;12365;43.554;1.388;2023-01-26T14:49:46;100243.06;;;7.07;58.54
24234;BME280;12365;43.554;1.388;2023-01-26T14:52:22;100239.78;;;7.09;58.56
24234;BME280;12365;43.554;1.388;2023-01-26T14:54:56;100240.75;;;7.11;58.57
24234;BME280;12365;43.554;1.388;2023-01-26T14:57:24;100237.88;;;7.07;58.34
24234;BME280;12365;43.554;1.388;2023-01-26T14:59:56;100244.84;;;7.08;58.33
24234;BME280;12365;43.554;1.388;2023-01-26T15:02:24;100240.06;;;7.14;58.13